Time;durP1;ratioP1;P1;durP2;ratioP2;P2;SDS_P1;SDS_P2;PMS_P1;PMS_P2;Temp;Humidity;BMP_temperature;BMP_pressure;BME280_temperature;BME280_humidity;BME280_pressure;Samples;Min_cycle;Max_cycle;Signal;HPM_P1;HPM_P2
2023/03/13 00:01:44;;;;;;;;;;;;;;;15.20;52.03;99343.91;4967025;28;7214;-75
2023/03/13 00:04:10;;;;;;;;;;;;;;;15.06;52.57;99337.72;4986894;28;6816;-75
2023/03/13 00:06:39;;;;;;;;;;;;;;;14.96;52.68;99334.13;4987164;28;6772;-75
2023/03/13 00:09:08;;;;;;;;;;;;;;;14.88;52.75;99339.22;4971276;28;6980;-75
2023/03/13 00:11:35;;;;;;;;;;;;;;;14.83;53.29;99335.72;4954471;28;6969;-75
2023/03/13 00:14:03;;;;;;;;;;;;;;;14.86;53.49;99331.44;4980922;28;6857;-75
2023/03/13 00:16:30;;;;;;;;;;;;;;;14.89;53.51;99322.03;4980760;28;6808;-75
2023/03/13 00:18:57;;;;;;;;;;;;;;;14.93;53.38;99309.19;4987559;28;7200;-75
2023/03/13 00:21:26;;;;;;;;;;;;;;;14.98;54.23;99307.53;4990245;28;6784;-75
2023/03/13 00:23:54;;;;;;;;;;;;;;;15.02;53.64;99303.28;4983860;28;6853;-75
2023/03/13 00:26:23;;;;;;;;;;;;;;;15.05;53.98;99308.47;4981769;28;6853;-75
2023/03/13 00:28:50;;;;;;;;;;;;;;;15.12;53.66;99296.53;4968304;28;6796;-75
2023/03/13 00:31:22;;;;;;;;;;;;;;;15.13;54.10;99285.34;4985767;28;6792;-75
2023/03/13 00:33:51;;;;;;;;;;;;;;;15.18;53.97;99283.66;4986266;28;6937;-75
2023/03/13 00:36:24;;;;;;;;;;;;;;;15.26;53.71;99284.63;4990950;28;7932;-75
2023/03/13 00:38:52;;;;;;;;;;;;;;;15.31;54.09;99264.03;4973364;28;6959;-75
2023/03/13 00:41:24;;;;;;;;;;;;;;;15.37;53.73;99276.13;4973046;28;8444;-75
2023/03/13 00:43:51;;;;;;;;;;;;;;;15.43;53.56;99267.56;4989315;28;6864;-75
2023/03/13 00:46:21;;;;;;;;;;;;;;;15.48;53.89;99265.91;4987601;28;6876;-75
2023/03/13 00:48:48;;;;;;;;;;;;;;;15.52;53.57;99257.34;4981729;28;7373;-75
2023/03/13 00:51:16;;;;;;;;;;;;;;;15.61;53.69;99264.31;4987289;28;7070;-75
2023/03/13 00:53:43;;;;;;;;;;;;;;;15.63;54.25;99260.03;4966708;28;6789;-75
2023/03/13 00:56:15;;;;;;;;;;;;;;;15.71;53.81;99254.91;4985585;28;6784;-75
2023/03/13 00:58:44;;;;;;;;;;;;;;;15.74;53.53;99247.19;4981585;28;7035;-75
2023/03/13 01:01:22;;;;;;;;;;;;;;;15.75;53.95;99238.63;4986784;28;6827;-75
2023/03/13 01:03:55;;;;;;;;;;;;;;;15.74;53.88;99234.28;4981941;28;7279;-75
2023/03/13 01:06:25;;;;;;;;;;;;;;;15.72;54.19;99234.28;4982421;28;6998;-75
2023/03/13 01:08:51;;;;;;;;;;;;;;;15.69;54.20;99234.22;4986937;28;7940;-75
2023/03/13 01:11:24;;;;;;;;;;;;;;;15.63;54.39;99223.88;4983124;28;6955;-75
2023/03/13 01:13:57;;;;;;;;;;;;;;;15.55;55.36;99222.09;4971483;28;7131;-75
2023/03/13 01:16:24;;;;;;;;;;;;;;;15.46;55.13;99213.41;4975565;28;6960;-75
2023/03/13 01:18:54;;;;;;;;;;;;;;;15.40;55.68;99203.84;4985123;28;7378;-75
2023/03/13 01:21:22;;;;;;;;;;;;;;;15.31;56.56;99203.81;4972975;28;7437;-75
2023/03/13 01:23:51;;;;;;;;;;;;;;;15.24;56.18;99211.47;4980228;28;8188;-75
2023/03/13 01:26:18;;;;;;;;;;;;;;;15.14;57.13;99195.00;4989177;28;6892;-75
2023/03/13 01:28:44;;;;;;;;;;;;;;;15.08;57.07;99194.09;4987444;28;6796;-75
2023/03/13 01:31:26;;;;;;;;;;;;;;;15.02;58.40;99189.75;4981593;28;6784;-75
2023/03/13 01:33:56;;;;;;;;;;;;;;;15.00;57.61;99186.28;4984934;28;7202;-75
2023/03/13 01:36:24;;;;;;;;;;;;;;;14.98;58.00;99182.84;4984512;28;6966;-75
2023/03/13 01:38:54;;;;;;;;;;;;;;;14.98;58.26;99172.50;4970889;28;6780;-75
2023/03/13 01:41:22;;;;;;;;;;;;;;;14.92;58.91;99163.00;4983718;28;7381;-75
2023/03/13 01:43:48;;;;;;;;;;;;;;;14.96;59.46;99153.53;4985382;28;6856;-75
2023/03/13 01:46:26;;;;;;;;;;;;;;;14.97;59.44;99157.88;4967853;28;7863;-75
2023/03/13 01:49:18;;;;;;;;;;;;;;;14.97;59.26;99150.16;4987684;28;6808;-75
2023/03/13 01:51:58;;;;;;;;;;;;;;;14.97;59.72;99142.41;4987072;28;6799;-75
2023/03/13 01:54:43;;;;;;;;;;;;;;;14.97;60.10;99140.66;4977867;28;6803;-75
2023/03/13 01:57:23;;;;;;;;;;;;;;;14.97;60.28;99138.09;4981714;28;7981;-75
2023/03/13 02:00:00;;;;;;;;;;;;;;;14.92;60.17;99138.91;4967455;28;7003;-75
2023/03/13 02:02:28;;;;;;;;;;;;;;;14.94;59.97;99134.63;4975305;28;7245;-75
2023/03/13 02:05:00;;;;;;;;;;;;;;;14.93;60.22;99136.34;4979020;28;7010;-75
2023/03/13 02:07:44;;;;;;;;;;;;;;;14.92;60.50;99136.31;4972462;28;6854;-75
2023/03/13 02:10:14;;;;;;;;;;;;;;;14.92;60.46;99131.16;4983245;28;6955;-75
2023/03/13 02:12:41;;;;;;;;;;;;;;;14.92;60.83;99120.84;4966968;28;7000;-75
2023/03/13 02:15:17;;;;;;;;;;;;;;;14.92;61.10;99115.69;4983342;28;6986;-75
2023/03/13 02:17:46;;;;;;;;;;;;;;;14.92;60.75;99120.84;4958258;28;7301;-75
2023/03/13 02:20:16;;;;;;;;;;;;;;;14.92;61.74;99115.69;4966138;28;10306;-75
2023/03/13 02:23:10;;;;;;;;;;;;;;;14.92;61.51;99110.53;4966485;28;7035;-75
2023/03/13 02:25:50;;;;;;;;;;;;;;;14.95;61.83;99115.69;4984349;28;6808;-75
2023/03/13 02:28:32;;;;;;;;;;;;;;;14.98;62.02;99126.06;4981767;28;8720;-75
2023/03/13 02:30:58;;;;;;;;;;;;;;;15.03;61.66;99106.31;4967300;28;6992;-75
2023/03/13 02:33:35;;;;;;;;;;;;;;;15.09;61.60;99101.22;4967577;28;6796;-75
2023/03/13 02:36:03;;;;;;;;;;;;;;;15.13;61.80;99090.06;4985968;28;6950;-75
2023/03/13 02:38:34;;;;;;;;;;;;;;;15.20;61.76;99075.50;4985002;28;6804;-75
2023/03/13 02:41:03;;;;;;;;;;;;;;;15.28;61.36;99068.69;4957331;28;8093;-75
2023/03/13 02:43:33;;;;;;;;;;;;;;;15.33;61.56;99062.69;4982826;28;6984;-75
2023/03/13 02:46:07;;;;;;;;;;;;;;;15.40;61.00;99042.09;4961234;28;6788;-75
2023/03/13 02:48:41;;;;;;;;;;;;;;;15.46;60.80;99035.25;4978376;28;7113;-75
2023/03/13 02:51:27;;;;;;;;;;;;;;;15.56;60.61;99016.38;4981414;28;7018;-75
2023/03/13 02:53:59;;;;;;;;;;;;;;;15.58;60.51;99022.41;4983551;28;6800;-75
2023/03/13 02:56:28;;;;;;;;;;;;;;;15.60;60.03;99006.94;4975720;28;6966;-75
2023/03/13 02:58:54;;;;;;;;;;;;;;;15.59;60.48;99016.38;4976401;28;6796;-75
2023/03/13 03:01:19;;;;;;;;;;;;;;;15.60;60.22;99007.78;4975593;28;6788;-75
2023/03/13 03:03:45;;;;;;;;;;;;;;;15.62;60.46;99003.47;4985506;28;6768;-75
2023/03/13 03:06:10;;;;;;;;;;;;;;;15.64;60.30;99001.75;4981281;28;6952;-75
2023/03/13 03:08:40;;;;;;;;;;;;;;;15.70;60.25;99024.19;4969026;28;6852;-75
2023/03/13 03:11:06;;;;;;;;;;;;;;;15.77;60.26;99009.59;4986833;28;6968;-75
2023/03/13 03:13:32;;;;;;;;;;;;;;;15.85;60.25;99017.34;4968954;28;7106;-75
2023/03/13 03:15:58;;;;;;;;;;;;;;;15.85;59.99;99022.53;4985750;28;6981;-75
2023/03/13 03:18:24;;;;;;;;;;;;;;;15.87;59.62;98998.44;4988148;28;6776;-75
2023/03/13 03:20:50;;;;;;;;;;;;;;;15.91;59.82;99012.25;4981859;28;7848;-75
2023/03/13 03:23:15;;;;;;;;;;;;;;;15.90;59.67;99013.09;4974851;28;6831;-75
2023/03/13 03:25:41;;;;;;;;;;;;;;;15.92;59.93;99003.66;4980467;28;7025;-74
2023/03/13 03:28:07;;;;;;;;;;;;;;;15.90;60.16;99006.22;4971198;28;6947;-75
2023/03/13 03:30:32;;;;;;;;;;;;;;;15.88;60.14;99013.06;4973315;28;6955;-75
2023/03/13 03:32:58;;;;;;;;;;;;;;;15.88;60.78;98986.34;4976340;28;6764;-75
2023/03/13 03:35:24;;;;;;;;;;;;;;;15.90;60.43;98982.09;4973672;28;6925;-75
2023/03/13 03:37:49;;;;;;;;;;;;;;;15.91;60.65;98987.28;4974605;28;6768;-74
2023/03/13 03:40:15;;;;;;;;;;;;;;;15.94;60.61;98992.47;4979655;28;6815;-75
2023/03/13 03:42:40;;;;;;;;;;;;;;;15.93;60.51;98982.13;4982238;28;6796;-75
2023/03/13 03:45:07;;;;;;;;;;;;;;;15.97;60.63;98991.59;4985263;28;6985;-74
2023/03/13 03:47:32;;;;;;;;;;;;;;;16.03;60.67;98985.56;4966615;28;7852;-75
2023/03/13 03:49:58;;;;;;;;;;;;;;;16.08;60.44;98991.63;4987097;28;6966;-75
2023/03/13 03:52:23;;;;;;;;;;;;;;;16.16;60.27;98978.72;4984523;28;7012;-74
2023/03/13 03:54:49;;;;;;;;;;;;;;;16.18;60.08;98984.78;4984884;28;6919;-75
2023/03/13 03:57:15;;;;;;;;;;;;;;;16.19;60.29;98987.34;4984003;28;7266;-75
2023/03/13 03:59:40;;;;;;;;;;;;;;;16.21;60.25;98989.97;4980345;28;7125;-75
2023/03/13 04:02:06;;;;;;;;;;;;;;;16.18;60.36;98990.81;4981503;28;6792;-75
2023/03/13 04:04:32;;;;;;;;;;;;;;;16.14;60.38;98980.44;4972978;28;6963;-75
2023/03/13 04:06:57;;;;;;;;;;;;;;;16.12;60.29;98997.69;4984579;28;6768;-75
2023/03/13 04:09:23;;;;;;;;;;;;;;;16.11;60.57;98989.06;4984248;28;6951;-75
2023/03/13 04:11:48;;;;;;;;;;;;;;;16.09;60.50;98985.59;4986695;28;7242;-75
2023/03/13 04:14:14;;;;;;;;;;;;;;;16.12;60.85;98985.59;4984794;28;7821;-75
2023/03/13 04:16:40;;;;;;;;;;;;;;;16.13;60.53;98979.59;4967750;28;6768;-75
2023/03/13 04:19:06;;;;;;;;;;;;;;;16.12;60.80;99000.28;4970879;28;6764;-75
2023/03/13 04:21:32;;;;;;;;;;;;;;;16.20;60.98;98967.56;4987492;28;6903;-75
2023/03/13 04:23:58;;;;;;;;;;;;;;;16.26;60.91;98989.97;4972233;28;7856;-75
2023/03/13 04:26:24;;;;;;;;;;;;;;;16.33;60.49;98983.97;4978764;28;6821;-75
2023/03/13 04:28:49;;;;;;;;;;;;;;;16.37;60.48;98983.09;4987205;28;6834;-75
2023/03/13 04:31:15;;;;;;;;;;;;;;;16.43;60.15;98993.44;4978158;28;6783;-75
2023/03/13 04:33:40;;;;;;;;;;;;;;;16.52;60.17;98985.72;4960689;28;6975;-75
2023/03/13 04:36:06;;;;;;;;;;;;;;;16.59;59.56;98970.19;4984956;28;6772;-75
2023/03/13 04:38:32;;;;;;;;;;;;;;;16.60;60.07;98965.00;4986010;28;7235;-75
2023/03/13 04:40:58;;;;;;;;;;;;;;;16.65;59.42;98976.22;4966784;28;7902;-75
2023/03/13 04:43:23;;;;;;;;;;;;;;;16.66;59.67;98958.97;4981522;28;7903;-75
2023/03/13 04:45:53;;;;;;;;;;;;;;;16.71;59.69;98979.66;4981793;28;6918;-75
2023/03/13 04:48:19;;;;;;;;;;;;;;;16.73;59.95;98967.59;4974690;28;6982;-75
2023/03/13 04:50:47;;;;;;;;;;;;;;;16.75;59.53;98958.97;4987564;28;6764;-75
2023/03/13 04:53:13;;;;;;;;;;;;;;;16.78;59.49;98950.34;4991282;28;7662;-75
2023/03/13 04:55:39;;;;;;;;;;;;;;;16.82;59.30;98941.72;4968268;28;6867;-75
2023/03/13 04:58:05;;;;;;;;;;;;;;;16.84;59.61;98933.97;4978258;28;8303;-75
2023/03/13 05:00:31;;;;;;;;;;;;;;;16.88;59.31;98930.50;4982988;28;7074;-75
2023/03/13 05:02:57;;;;;;;;;;;;;;;16.88;59.27;98909.78;4983074;28;6830;-75
2023/03/13 05:05:22;;;;;;;;;;;;;;;16.91;59.31;98915.00;4981376;28;6903;-74
2023/03/13 05:07:48;;;;;;;;;;;;;;;16.93;59.30;98913.25;4973593;28;8178;-75
2023/03/13 05:10:13;;;;;;;;;;;;;;;16.93;59.05;98919.28;4982514;28;6922;-75
2023/03/13 05:12:39;;;;;;;;;;;;;;;16.97;59.25;98924.47;4982672;28;7670;-75
2023/03/13 05:15:05;;;;;;;;;;;;;;;16.98;58.84;98913.25;4984630;28;6964;-76
2023/03/13 05:17:31;;;;;;;;;;;;;;;17.01;58.61;98908.97;4970625;28;7028;-75
2023/03/13 05:19:57;;;;;;;;;;;;;;;17.05;58.37;98895.13;4982249;28;9427;-75
2023/03/13 05:22:22;;;;;;;;;;;;;;;17.00;58.59;98877.88;4987973;28;7316;-75
2023/03/13 05:24:48;;;;;;;;;;;;;;;17.00;58.58;98891.72;4983975;28;6824;-75
2023/03/13 05:27:13;;;;;;;;;;;;;;;17.02;58.31;98895.16;4987386;28;7069;-75
2023/03/13 05:29:39;;;;;;;;;;;;;;;17.01;58.85;98888.25;4985696;28;7371;-75
2023/03/13 05:32:05;;;;;;;;;;;;;;;17.08;58.43;98902.88;4987955;28;6794;-75
2023/03/13 05:34:31;;;;;;;;;;;;;;;17.14;58.31;98914.97;4973276;28;7187;-75
2023/03/13 05:36:56;;;;;;;;;;;;;;;17.23;58.60;98926.13;4988860;28;6868;-75
2023/03/13 05:39:22;;;;;;;;;;;;;;;17.23;58.21;98921.84;4988172;28;7817;-75
2023/03/13 05:41:48;;;;;;;;;;;;;;;17.25;58.07;98914.91;4969782;28;7011;-75
2023/03/13 05:44:13;;;;;;;;;;;;;;;17.31;57.87;98926.97;4988453;28;7105;-75
2023/03/13 05:46:39;;;;;;;;;;;;;;;17.38;57.63;98917.47;4968820;28;6815;-75
2023/03/13 05:49:04;;;;;;;;;;;;;;;17.39;57.75;98920.06;4985185;28;8209;-75
2023/03/13 05:51:30;;;;;;;;;;;;;;;17.42;57.55;98932.13;4980706;28;7194;-75
2023/03/13 05:53:56;;;;;;;;;;;;;;;17.45;57.50;98932.13;4971103;28;6780;-76
2023/03/13 05:56:21;;;;;;;;;;;;;;;17.50;57.44;98935.56;4992023;28;6772;-76
2023/03/13 05:58:47;;;;;;;;;;;;;;;17.51;57.28;98933.81;4966410;28;7470;-75
2023/03/13 06:01:13;;;;;;;;;;;;;;;17.57;57.42;98937.25;4983347;28;6780;-75
2023/03/13 06:03:39;;;;;;;;;;;;;;;17.55;57.36;98923.44;4975846;28;6848;-76
2023/03/13 06:06:05;;;;;;;;;;;;;;;17.56;57.16;98919.97;4985466;28;6780;-75
2023/03/13 06:08:31;;;;;;;;;;;;;;;17.59;57.09;98943.31;4991980;28;6775;-75
2023/03/13 06:11:02;;;;;;;;;;;;;;;17.61;56.87;98944.16;4965768;28;7233;-75
2023/03/13 06:13:27;;;;;;;;;;;;;;;17.62;57.24;98932.91;4980836;28;6815;-75
2023/03/13 06:15:56;;;;;;;;;;;;;;;17.66;57.07;98932.91;4986324;28;7103;-75
2023/03/13 06:18:23;;;;;;;;;;;;;;;17.67;56.90;98924.25;4982198;28;7602;-75
2023/03/13 06:20:57;;;;;;;;;;;;;;;17.71;56.50;98933.75;4975584;28;6776;-75
2023/03/13 06:23:22;;;;;;;;;;;;;;;17.69;56.21;98936.34;4987852;28;6808;-75
2023/03/13 06:25:48;;;;;;;;;;;;;;;17.72;56.37;98930.28;4987566;28;6856;-75
2023/03/13 06:28:14;;;;;;;;;;;;;;;17.71;56.35;98928.56;4985296;28;6780;-75
2023/03/13 06:30:40;;;;;;;;;;;;;;;17.75;56.11;98948.41;4981048;28;7704;-75
2023/03/13 06:33:05;;;;;;;;;;;;;;;17.74;56.32;98934.59;4984264;28;6776;-75
2023/03/13 06:35:31;;;;;;;;;;;;;;;17.74;55.88;98933.72;4986196;28;6764;-75
2023/03/13 06:37:57;;;;;;;;;;;;;;;17.77;55.94;98944.94;4982236;28;6969;-75
2023/03/13 06:40:22;;;;;;;;;;;;;;;17.80;55.91;98944.06;4962387;28;6930;-75
2023/03/13 06:42:48;;;;;;;;;;;;;;;17.80;55.83;98938.88;4987690;28;6918;-76
2023/03/13 06:45:13;;;;;;;;;;;;;;;17.81;55.61;98950.09;4969938;28;7373;-75
2023/03/13 06:47:39;;;;;;;;;;;;;;;17.83;55.48;98938.88;4985336;28;6917;-75
2023/03/13 06:50:05;;;;;;;;;;;;;;;17.86;55.04;98950.94;4999369;28;7128;-75
2023/03/13 06:52:31;;;;;;;;;;;;;;;17.86;55.01;98945.78;4966787;28;7963;-75
2023/03/13 06:54:56;;;;;;;;;;;;;;;17.87;55.08;98939.72;4982504;28;6824;-75
2023/03/13 06:57:22;;;;;;;;;;;;;;;17.86;54.54;98936.25;4968555;28;6944;-75
2023/03/13 06:59:48;;;;;;;;;;;;;;;17.90;54.63;98922.41;4987538;28;6776;-75
2023/03/13 07:02:15;;;;;;;;;;;;;;;17.96;54.61;98913.75;4972658;28;7327;-75
2023/03/13 07:04:40;;;;;;;;;;;;;;;17.98;53.75;98926.72;4984466;28;6807;-76
2023/03/13 07:07:06;;;;;;;;;;;;;;;18.03;54.24;98923.25;4990519;28;7158;-75
2023/03/13 07:09:32;;;;;;;;;;;;;;;18.08;53.88;98914.56;4979215;28;6999;-75
2023/03/13 07:11:58;;;;;;;;;;;;;;;18.11;53.87;98909.38;4991978;28;6756;-75
2023/03/13 07:14:24;;;;;;;;;;;;;;;18.14;53.67;98907.59;4991977;28;6954;-76
2023/03/13 07:16:49;;;;;;;;;;;;;;;18.21;53.29;98902.38;4990010;28;7437;-75
2023/03/13 07:19:15;;;;;;;;;;;;;;;18.26;53.42;98900.63;4984690;28;7379;-75
2023/03/13 07:21:41;;;;;;;;;;;;;;;18.30;53.29;98912.69;4983418;28;6805;-75
2023/03/13 07:24:07;;;;;;;;;;;;;;;18.37;53.21;98893.63;4984554;28;6791;-75
2023/03/13 07:26:32;;;;;;;;;;;;;;;18.44;52.56;98895.28;4990258;28;6861;-75
2023/03/13 07:28:58;;;;;;;;;;;;;;;18.50;52.40;98893.50;4986397;28;6983;-75
2023/03/13 07:31:24;;;;;;;;;;;;;;;18.56;52.31;98903.84;4978510;28;7774;-75
2023/03/13 07:33:55;;;;;;;;;;;;;;;18.55;51.82;98891.75;4984733;28;6940;-75
2023/03/13 07:36:21;;;;;;;;;;;;;;;18.54;51.96;98896.06;4985016;28;6808;-75
2023/03/13 07:38:51;;;;;;;;;;;;;;;18.54;51.68;98885.69;4985755;28;8010;-75
2023/03/13 07:41:18;;;;;;;;;;;;;;;18.52;51.38;98889.16;4985489;28;6803;-75
2023/03/13 07:43:44;;;;;;;;;;;;;;;18.51;51.82;98897.81;4974710;28;6807;-75
2023/03/13 07:46:20;;;;;;;;;;;;;;;18.49;51.16;98902.16;4981904;28;8101;-75
2023/03/13 07:48:46;;;;;;;;;;;;;;;18.50;51.59;98893.50;4966391;28;7713;-75
2023/03/13 07:51:19;;;;;;;;;;;;;;;18.49;51.86;98891.78;4973058;28;6780;-75
2023/03/13 07:53:46;;;;;;;;;;;;;;;18.45;51.21;98885.75;4978334;28;6979;-75
2023/03/13 07:56:15;;;;;;;;;;;;;;;18.45;51.55;98897.03;4970229;28;6808;-75
2023/03/13 07:58:42;;;;;;;;;;;;;;;18.48;51.57;98883.13;4967371;28;6796;-75
2023/03/13 08:01:16;;;;;;;;;;;;;;;18.52;51.71;98905.59;4983499;28;6811;-75
2023/03/13 08:03:44;;;;;;;;;;;;;;;18.58;51.11;98909.88;4965678;28;6804;-75
2023/03/13 08:06:15;;;;;;;;;;;;;;;18.60;51.25;98900.34;4967883;28;8720;-75
2023/03/13 08:08:41;;;;;;;;;;;;;;;18.62;51.64;98896.00;4987781;28;6951;-74
2023/03/13 08:11:26;;;;;;;;;;;;;;;18.61;51.71;98894.28;4984317;28;6974;-75
2023/03/13 08:13:56;;;;;;;;;;;;;;;18.60;51.45;98885.66;4979654;28;7236;-75
2023/03/13 08:16:29;;;;;;;;;;;;;;;18.59;51.45;98896.03;4967587;28;6924;-75
2023/03/13 08:18:57;;;;;;;;;;;;;;;18.58;51.53;98902.09;4986881;28;6792;-75
2023/03/13 08:21:32;;;;;;;;;;;;;;;18.54;51.53;98884.81;4987825;28;8725;-75
2023/03/13 08:24:05;;;;;;;;;;;;;;;18.54;51.50;98896.06;4987269;28;6919;-75
2023/03/13 08:26:34;;;;;;;;;;;;;;;18.52;52.60;98889.16;4989115;28;6800;-75
2023/03/13 08:29:05;;;;;;;;;;;;;;;18.43;52.88;98883.19;4991704;28;6860;-75
2023/03/13 08:31:48;;;;;;;;;;;;;;;18.41;53.32;98881.50;4989030;28;7015;-75
2023/03/13 08:34:16;;;;;;;;;;;;;;;18.49;52.65;98871.03;4974670;28;6824;-75
2023/03/13 08:36:42;;;;;;;;;;;;;;;18.54;52.81;98874.44;4975618;28;6804;-75
2023/03/13 08:39:15;;;;;;;;;;;;;;;18.54;52.73;98875.31;4979594;28;6983;-75
2023/03/13 08:41:41;;;;;;;;;;;;;;;18.57;52.72;98864.91;4974148;28;6792;-74
2023/03/13 08:44:11;;;;;;;;;;;;;;;18.60;52.45;98859.69;4986114;28;6951;-75
2023/03/13 08:46:38;;;;;;;;;;;;;;;18.61;52.55;98876.09;4973496;28;7135;-74
2023/03/13 08:49:06;;;;;;;;;;;;;;;18.65;52.44;98861.38;4954637;28;7061;-74
2023/03/13 08:51:33;;;;;;;;;;;;;;;18.65;52.52;98871.75;4971198;28;7407;-74
2023/03/13 08:54:00;;;;;;;;;;;;;;;18.65;53.02;98882.13;4992917;28;6840;-74
2023/03/13 08:56:29;;;;;;;;;;;;;;;18.73;52.90;98865.63;4991303;28;6969;-74
2023/03/13 08:59:00;;;;;;;;;;;;;;;18.79;52.55;98861.25;4978193;28;7324;-74
2023/03/13 09:01:30;;;;;;;;;;;;;;;18.79;52.56;98867.31;4965910;28;7370;-74
2023/03/13 09:03:56;;;;;;;;;;;;;;;18.86;52.56;98863.75;4987528;28;6804;-74
2023/03/13 09:06:22;;;;;;;;;;;;;;;18.88;52.86;98862.03;4969249;28;6992;-74
2023/03/13 09:08:48;;;;;;;;;;;;;;;18.92;52.57;98860.22;4979336;28;7507;-76
2023/03/13 09:11:17;;;;;;;;;;;;;;;19.05;52.93;98867.94;4968768;28;6828;-76
2023/03/13 09:13:46;;;;;;;;;;;;;;;19.14;52.60;98847.06;4982774;28;7157;-76
2023/03/13 09:16:20;;;;;;;;;;;;;;;19.25;52.24;98852.97;4988139;28;6808;-74
2023/03/13 09:18:47;;;;;;;;;;;;;;;19.24;51.96;98853.84;4991252;28;6886;-74
2023/03/13 09:21:35;;;;;;;;;;;;;;;19.24;52.54;98855.56;4987694;28;7343;-74
2023/03/13 09:24:01;;;;;;;;;;;;;;;19.17;52.64;98847.00;4975026;28;8548;-74
2023/03/13 09:26:28;;;;;;;;;;;;;;;19.13;52.58;98814.19;4990837;28;6807;-74
2023/03/13 09:28:54;;;;;;;;;;;;;;;19.13;53.03;98847.94;4969620;28;7841;-74
2023/03/13 09:31:27;;;;;;;;;;;;;;;19.19;52.85;98850.44;4976750;28;6839;-74
2023/03/13 09:33:53;;;;;;;;;;;;;;;19.33;52.44;98844.22;4979368;28;6800;-74
2023/03/13 09:36:20;;;;;;;;;;;;;;;19.42;52.45;98828.53;4986188;28;7003;-74
2023/03/13 09:38:46;;;;;;;;;;;;;;;19.47;52.04;98831.06;4986752;28;6804;-74
2023/03/13 09:41:54;;;;;;;;;;;;;;;19.52;51.97;98835.31;4985791;28;7233;-74
2023/03/13 09:44:28;;;;;;;;;;;;;;;19.57;51.94;98811.88;4984675;28;7645;-74
2023/03/13 09:46:53;;;;;;;;;;;;;;;19.65;52.02;98820.41;4967206;28;7282;-74
2023/03/13 09:49:36;;;;;;;;;;;;;;;19.81;51.42;98825.38;4992121;28;6786;-74
2023/03/13 09:52:15;;;;;;;;;;;;;;;19.90;51.50;98814.81;4992231;28;6819;-73
2023/03/13 09:54:55;;;;;;;;;;;;;;;20.00;50.74;98805.19;4987463;28;6816;-74
2023/03/13 09:57:42;;;;;;;;;;;;;;;20.11;50.30;98816.25;4984908;28;6815;-75
2023/03/13 10:00:14;;;;;;;;;;;;;;;20.17;50.56;98771.09;4979299;28;7232;-74
2023/03/13 10:02:46;;;;;;;;;;;;;;;20.21;50.15;98810.91;4973528;28;11826;-74
2023/03/13 10:05:27;;;;;;;;;;;;;;;20.32;50.06;98800.31;4986390;28;7261;-74
2023/03/13 10:08:20;;;;;;;;;;;;;;;20.38;49.67;98811.47;4967732;28;8260;-74
2023/03/13 10:11:06;;;;;;;;;;;;;;;20.50;49.99;98810.38;4982431;28;10287;-75
2023/03/13 10:13:52;;;;;;;;;;;;;;;20.59;49.52;98805.91;4963081;28;7237;-74
2023/03/13 10:16:34;;;;;;;;;;;;;;;20.69;49.16;98807.44;4976681;28;7319;-74
2023/03/13 10:19:16;;;;;;;;;;;;;;;20.81;48.76;98802.03;4985195;28;7011;-74
2023/03/13 10:21:49;;;;;;;;;;;;;;;20.95;48.58;98780.91;4984951;28;7012;-74
2023/03/13 10:24:31;;;;;;;;;;;;;;;21.08;47.85;98788.50;4968648;28;7355;-74
2023/03/13 10:26:57;;;;;;;;;;;;;;;21.20;47.87;98775.19;4987697;28;6844;-74
2023/03/13 10:29:27;;;;;;;;;;;;;;;21.48;47.70;98774.59;4970857;28;7214;-74
2023/03/13 10:32:05;;;;;;;;;;;;;;;21.96;46.62;98764.81;4987555;28;6810;-74
2023/03/13 10:34:59;;;;;;;;;;;;;;;22.26;45.75;98766.66;4986171;28;6800;-74
2023/03/13 10:37:38;;;;;;;;;;;;;;;22.55;45.38;98758.09;4991404;28;7030;-74
2023/03/13 10:40:27;;;;;;;;;;;;;;;22.83;44.28;98746.00;4985336;28;6824;-74
2023/03/13 10:43:11;;;;;;;;;;;;;;;22.94;44.24;98749.19;4973251;28;6800;-74
2023/03/13 10:45:39;;;;;;;;;;;;;;;23.18;44.29;98744.09;4980061;28;7141;-74
2023/03/13 10:48:24;;;;;;;;;;;;;;;23.66;44.02;98729.59;4990619;28;6975;-74
2023/03/13 10:50:56;;;;;;;;;;;;;;;24.22;42.39;98725.09;4988543;28;6800;-74
2023/03/13 10:53:35;;;;;;;;;;;;;;;24.74;40.82;98721.53;4971765;28;7068;-74
2023/03/13 10:56:16;;;;;;;;;;;;;;;24.92;40.06;98713.94;4983626;28;7185;-74
2023/03/13 10:58:49;;;;;;;;;;;;;;;24.94;40.10;98688.50;4967311;28;6995;-74
2023/03/13 11:01:17;;;;;;;;;;;;;;;24.99;39.41;98693.56;4967965;28;7295;-75
2023/03/13 11:03:45;;;;;;;;;;;;;;;25.29;39.53;98696.72;4986052;28;7054;-74
2023/03/13 11:06:40;;;;;;;;;;;;;;;25.64;38.11;98698.88;4985227;28;6996;-74
2023/03/13 11:09:16;;;;;;;;;;;;;;;25.76;37.78;98695.75;4984088;28;6834;-74
2023/03/13 11:11:44;;;;;;;;;;;;;;;25.68;37.42;98702.22;4984759;28;7015;-74
2023/03/13 11:14:24;;;;;;;;;;;;;;;25.05;37.80;98702.03;4989980;28;6865;-74
2023/03/13 11:16:59;;;;;;;;;;;;;;;24.64;38.49;98683.50;4969554;28;6986;-74
2023/03/13 11:19:54;;;;;;;;;;;;;;;24.71;38.63;98679.72;4986470;28;6832;-74
2023/03/13 11:22:49;;;;;;;;;;;;;;;25.08;38.70;98685.34;4978930;28;7016;-74
2023/03/13 11:25:34;;;;;;;;;;;;;;;25.31;38.39;98678.34;4991525;28;6800;-74
2023/03/13 11:28:26;;;;;;;;;;;;;;;25.64;38.21;98676.13;4987027;28;6864;-74
2023/03/13 11:31:14;;;;;;;;;;;;;;;25.96;37.57;98646.81;4989976;28;6963;-74
2023/03/13 11:34:05;;;;;;;;;;;;;;;25.67;36.79;98648.06;4988215;28;7582;-75
2023/03/13 11:37:02;;;;;;;;;;;;;;;25.21;37.79;98649.03;4989300;28;6807;-74
2023/03/13 11:39:49;;;;;;;;;;;;;;;25.16;38.65;98656.22;4970061;28;7055;-74
2023/03/13 11:42:57;;;;;;;;;;;;;;;25.52;38.21;98634.69;4985595;28;7216;-74
2023/03/13 11:46:11;;;;;;;;;;;;;;;25.90;37.45;98642.69;4977109;28;7062;-74
2023/03/13 11:49:06;;;;;;;;;;;;;;;25.81;36.98;98636.97;4981031;28;7297;-74
2023/03/13 11:52:06;;;;;;;;;;;;;;;25.64;37.18;98642.03;4982875;28;7193;-74
2023/03/13 11:55:10;;;;;;;;;;;;;;;25.35;36.93;98646.69;4984937;28;8533;-74
2023/03/13 11:58:36;;;;;;;;;;;;;;;25.17;37.81;98618.59;4905583;29;7004;-75
2023/03/13 12:01:13;;;;;;;;;;;;;;;25.04;38.44;98613.88;4969426;28;7151;-74
2023/03/13 12:03:53;;;;;;;;;;;;;;;25.04;38.36;98613.00;4986875;28;7011;-74
2023/03/13 12:06:48;;;;;;;;;;;;;;;24.95;38.43;98609.81;4992521;28;7190;-74
2023/03/13 12:09:39;;;;;;;;;;;;;;;24.94;37.82;98583.72;4989459;28;6895;-74
2023/03/13 12:12:54;;;;;;;;;;;;;;;24.66;38.04;98597.88;4978273;28;6996;-74
2023/03/13 12:15:55;;;;;;;;;;;;;;;24.21;38.83;98608.25;4987286;28;7026;-74
2023/03/13 12:18:27;;;;;;;;;;;;;;;23.88;39.34;98610.28;4974786;28;7266;-74
2023/03/13 12:21:13;;;;;;;;;;;;;;;23.91;39.46;98600.56;4989064;28;6804;-74
2023/03/13 12:23:38;;;;;;;;;;;;;;;24.34;39.21;98607.81;4986432;28;8827;-74
2023/03/13 12:26:20;;;;;;;;;;;;;;;24.81;37.84;98593.81;4986495;28;7975;-74
2023/03/13 12:29:10;;;;;;;;;;;;;;;24.73;37.62;98578.38;4980930;28;7177;-74
2023/03/13 12:32:02;;;;;;;;;;;;;;;24.57;38.29;98577.28;4985594;28;7465;-74
2023/03/13 12:34:47;;;;;;;;;;;;;;;24.36;38.30;98575.41;4984438;28;6993;-75
2023/03/13 12:38:00;;;;;;;;;;;;;;;24.04;38.81;98584.41;4981067;28;7451;-74
2023/03/13 12:40:30;;;;;;;;;;;;;;;23.63;39.68;98585.00;4935075;28;7961;-74
2023/03/13 12:43:16;;;;;;;;;;;;;;;23.28;39.47;98582.69;4984604;28;6974;-74
2023/03/13 12:46:11;;;;;;;;;;;;;;;22.93;40.48;98574.22;4972736;28;6880;-74
2023/03/13 12:49:04;;;;;;;;;;;;;;;22.68;40.68;98588.03;4982805;28;6962;-74
2023/03/13 12:52:10;;;;;;;;;;;;;;;22.43;40.83;98560.03;4973498;28;6812;-74
2023/03/13 12:54:52;;;;;;;;;;;;;;;22.28;41.41;98577.00;4986971;28;7234;-74
2023/03/13 12:57:59;;;;;;;;;;;;;;;22.16;42.11;98578.22;4992045;28;7686;-74
2023/03/13 13:00:30;;;;;;;;;;;;;;;22.20;42.72;98559.81;4988880;28;6832;-74
2023/03/13 13:03:21;;;;;;;;;;;;;;;22.30;42.26;98555.16;4985318;28;7919;-75
2023/03/13 13:06:14;;;;;;;;;;;;;;;22.39;42.28;98538.41;4988686;28;6800;-74
2023/03/13 13:08:45;;;;;;;;;;;;;;;22.43;41.94;98542.63;4981931;28;7586;-75
2023/03/13 13:11:33;;;;;;;;;;;;;;;22.37;41.78;98553.25;4964740;28;7404;-75
2023/03/13 13:14:24;;;;;;;;;;;;;;;22.36;41.83;98533.28;4987535;28;7286;-75
2023/03/13 13:17:10;;;;;;;;;;;;;;;22.27;42.10;98550.06;4986949;28;6993;-75
2023/03/13 13:19:45;;;;;;;;;;;;;;;22.19;42.04;98550.28;4982537;28;6812;-75
2023/03/13 13:22:35;;;;;;;;;;;;;;;22.11;42.04;98543.56;4989607;28;6992;-74
2023/03/13 13:25:07;;;;;;;;;;;;;;;21.98;42.43;98546.53;4985513;28;7314;-75
2023/03/13 13:27:35;;;;;;;;;;;;;;;21.88;42.14;98532.94;4987445;28;7204;-75